Pongnae — 3FDZ8 — position and weather

sailwx.info

Track history (hours):
 
Tides and Currents Weather Stations Pressure Air Temp Water Temp Dewpoint Dewpoint Depression Visibility Wind Speed Wind Dir Waves Ship Positions

Pongnae

Operator: V Ships Leisure SAM

Last reported at 2015-Apr-21 07:33 UTC. Time now 2015-Apr-21 08:18 UTC.
Position N 22°18' E 114°13'.

Length 171 m; draft 6.6 m.

Type: Passenger vessel. MMSI: 353669000.

Date/timePositionNaut miles runAvg speedWind from/ knotsBaromVisibWave heightAir tempDewpointWater temp
2015-Apr-21 07:33N 22°18' E 114°13'0 0.1
2015-Apr-21 06:33N 22°18' E 114°13'0 0.1
2015-Apr-21 05:33N 22°18' E 114°13'0 0.0
2015-Apr-21 04:33N 22°18' E 114°13'0 0.0
2015-Apr-21 03:33N 22°18' E 114°13'0 0.1
2015-Apr-21 02:33N 22°18' E 114°13'0 0.0
2015-Apr-21 01:30N 22°18' E 114°13'0 0.0
2015-Apr-21 00:33N 22°18' E 114°13'0 0.5
2015-Apr-20 23:33N 22°18' E 114°14'8 8.4
2015-Apr-20 22:33N 22°12' E 114°20'1 0.1
2015-Apr-20 13:28N 22°12' E 114°19'8 8.5
2015-Apr-20 12:33N 22°18' E 114°13'0 0.0
2015-Apr-20 11:33N 22°18' E 114°13'0 0.1
2015-Apr-20 10:33N 22°18' E 114°13'0 0.1
2015-Apr-20 09:33N 22°18' E 114°13'0 0.0
2015-Apr-20 08:33N 22°18' E 114°13'0 0.0
2015-Apr-20 07:33N 22°18' E 114°13'0 0.1
2015-Apr-20 06:33N 22°18' E 114°13'0 0.1
2015-Apr-20 05:33N 22°18' E 114°13'0 0.1
2015-Apr-20 04:33N 22°18' E 114°13'0 0.0
2015-Apr-20 03:33N 22°18' E 114°13'0 0.0
2015-Apr-20 02:33N 22°18' E 114°13'0 0.0
2015-Apr-20 01:32N 22°18' E 114°13'0 0.0
2015-Apr-20 00:33N 22°18' E 114°13'1 0.9
2015-Apr-19 23:33N 22°17' E 114°14'8 7.5
2015-Apr-19 22:28N 22°11' E 114°20'2 0.2
2015-Apr-19 13:18N 22°12' E 114°18'710.0
2015-Apr-19 12:34N 22°18' E 114°13'0 0.0
2015-Apr-19 11:32N 22°18' E 114°13'0 0.1
2015-Apr-19 10:32N 22°18' E 114°13'0 0.1
2015-Apr-19 09:32N 22°18' E 114°13'0 0.1
2015-Apr-19 08:32N 22°18' E 114°13'0 0.1
2015-Apr-19 07:32N 22°18' E 114°13'0 0.1
2015-Apr-19 06:31N 22°18' E 114°13'0 0.1
2015-Apr-19 05:31N 22°18' E 114°13'0 0.1
2015-Apr-19 04:31N 22°18' E 114°13'0 0.1
2015-Apr-19 03:31N 22°18' E 114°13'0 0.1
2015-Apr-19 02:31N 22°18' E 114°13'0 0.1
2015-Apr-19 01:28N 22°18' E 114°13'0 0.0
2015-Apr-19 00:31N 22°18' E 114°13'2 2.0
2015-Apr-18 23:34N 22°17' E 114°15'10 7.5
2015-Apr-18 22:15N 22°08' E 114°19'4 0.5
2015-Apr-18 13:21N 22°12' E 114°19'8 9.6
2015-Apr-18 12:33N 22°18' E 114°13'0 0.0
2015-Apr-18 11:33N 22°18' E 114°13'0 0.1
2015-Apr-18 10:33N 22°18' E 114°13'0 0.0
2015-Apr-18 09:33N 22°18' E 114°13'0 0.1
2015-Apr-18 08:33N 22°18' E 114°13'0 0.0
2015-Apr-18 07:33N 22°18' E 114°13'0 0.0
2015-Apr-18 06:33N 22°18' E 114°13'0 0.0
2015-Apr-18 05:33N 22°18' E 114°13'0 0.0
2015-Apr-18 04:33N 22°18' E 114°13'0 0.0
2015-Apr-18 03:33N 22°18' E 114°13'0 0.1
2015-Apr-18 02:33N 22°18' E 114°13'0 0.0
2015-Apr-18 01:33N 22°18' E 114°13'0 0.0
2015-Apr-18 00:33N 22°18' E 114°13'1 0.9
2015-Apr-17 23:33N 22°17' E 114°14'11 8.4
2015-Apr-17 22:16N 22°08' E 114°21'4 0.4
2015-Apr-17 13:29N 22°12' E 114°19'8 8.2
2015-Apr-17 12:31N 22°18' E 114°13'0 0.1
2015-Apr-17 11:31N 22°18' E 114°13'0 0.0
2015-Apr-17 10:31N 22°18' E 114°13'0 0.0
2015-Apr-17 09:31N 22°18' E 114°13'0 0.0
2015-Apr-17 08:31N 22°18' E 114°13'0 0.0
2015-Apr-17 07:33N 22°18' E 114°13'0 0.0
2015-Apr-17 06:30N 22°18' E 114°13'0 0.1
2015-Apr-17 05:33N 22°18' E 114°13'0 0.0
2015-Apr-17 04:33N 22°18' E 114°13'0 0.0
2015-Apr-17 03:33N 22°18' E 114°13'0 0.1
2015-Apr-17 02:33N 22°18' E 114°13'0 0.1
2015-Apr-17 01:33N 22°18' E 114°13'0 0.0
2015-Apr-17 00:33N 22°18' E 114°13'2 1.9
2015-Apr-16 23:33N 22°17' E 114°15'11 7.5
2015-Apr-16 22:06N 22°07' E 114°19'5 0.6
2015-Apr-16 13:29N 22°12' E 114°19'8 8.2
2015-Apr-16 12:33N 22°18' E 114°13'0 0.1
2015-Apr-16 11:33N 22°18' E 114°13'0 0.0
2015-Apr-16 10:33N 22°18' E 114°13'0 0.1
2015-Apr-16 09:33N 22°18' E 114°13'0 0.0
2015-Apr-16 08:33N 22°18' E 114°13'0 0.0
2015-Apr-16 07:33N 22°18' E 114°13'0 0.1
2015-Apr-16 06:33N 22°18' E 114°13'0 0.0
2015-Apr-16 05:33N 22°18' E 114°13'0 0.1
2015-Apr-16 04:33N 22°18' E 114°13'0 0.0
2015-Apr-16 03:33N 22°18' E 114°13'0 0.1
2015-Apr-16 02:33N 22°18' E 114°13'0 0.1
2015-Apr-16 01:33N 22°18' E 114°13'0 0.0
2015-Apr-16 00:33N 22°18' E 114°13'1 1.0
2015-Apr-15 23:33N 22°17' E 114°14'12 8.5
2015-Apr-15 22:10N 22°07' E 114°20'2 1.1
2015-Apr-15 20:28N 22°05' E 114°19'7 1.0
2015-Apr-15 13:13N 22°12' E 114°18'710.4
2015-Apr-15 12:31N 22°18' E 114°13'0 0.0
2015-Apr-15 11:31N 22°18' E 114°13'0 0.1
2015-Apr-15 10:31N 22°18' E 114°13'0 0.0
2015-Apr-15 09:31N 22°18' E 114°13'0 0.0
2015-Apr-15 08:31N 22°18' E 114°13'0 0.0
2015-Apr-15 07:31N 22°18' E 114°13'0 0.0
2015-Apr-15 06:28N 22°18' E 114°13'0 0.0
2015-Apr-15 05:31N 22°18' E 114°13'0 0.1
2015-Apr-15 04:31N 22°18' E 114°13'0 0.0
2015-Apr-15 03:31N 22°18' E 114°13'0 0.1
2015-Apr-15 02:31N 22°18' E 114°13'0 0.1
2015-Apr-15 01:31N 22°18' E 114°13'0 0.0
2015-Apr-15 00:31N 22°18' E 114°13'1 0.6
2015-Apr-14 23:33N 22°17' E 114°14'12 8.3
2015-Apr-14 22:06N 22°07' E 114°20'5 0.6
2015-Apr-14 13:13N 22°12' E 114°19'711.4
2015-Apr-14 12:33N 22°18' E 114°13'0 0.1
2015-Apr-14 11:32N 22°18' E 114°13'0 0.0
2015-Apr-14 10:32N 22°18' E 114°13'0 0.0
2015-Apr-14 09:32N 22°18' E 114°13'0 0.1
2015-Apr-14 08:32N 22°18' E 114°13'0 0.0
2015-Apr-14 07:32N 22°18' E 114°13'0 0.0
2015-Apr-14 06:32N 22°18' E 114°13'0 0.0
2015-Apr-14 05:32N 22°18' E 114°13'0 0.0
2015-Apr-14 04:32N 22°18' E 114°13'0 0.0
2015-Apr-14 03:32N 22°18' E 114°13'0 0.0
2015-Apr-14 02:32N 22°18' E 114°13'0 0.0
2015-Apr-14 01:32N 22°18' E 114°13'0 0.0
2015-Apr-14 00:32N 22°18' E 114°13'1 1.0
2015-Apr-13 23:33N 22°17' E 114°14'8 7.7
2015-Apr-13 22:27N 22°11' E 114°20'5 1.6
2015-Apr-13 19:11N 22°06' E 114°18'7 1.1
2015-Apr-13 13:12N 22°12' E 114°18'711.3
2015-Apr-13 12:33N 22°18' E 114°13'0 0.0
2015-Apr-13 11:32N 22°18' E 114°13'0 0.0
2015-Apr-13 10:32N 22°18' E 114°13'0 0.0
2015-Apr-13 09:32N 22°18' E 114°13'0 0.1
2015-Apr-13 08:32N 22°18' E 114°13'0 0.0
2015-Apr-13 07:32N 22°18' E 114°13'0 0.0
2015-Apr-13 06:32N 22°18' E 114°13'0 0.0
2015-Apr-13 05:32N 22°18' E 114°13'0 0.0
2015-Apr-13 04:32N 22°18' E 114°13'0 0.1
2015-Apr-13 03:32N 22°18' E 114°13'0 0.0
2015-Apr-13 02:32N 22°18' E 114°13'0 0.1
2015-Apr-13 01:32N 22°18' E 114°13'0 0.0
2015-Apr-13 00:32N 22°18' E 114°13'1 0.9
2015-Apr-12 23:33N 22°17' E 114°14'9 8.2
2015-Apr-12 22:30N 22°10' E 114°20'5 1.0
2015-Apr-12 17:30N 22°06' E 114°18'7 1.6
2015-Apr-12 13:13N 22°13' E 114°18'710.1
2015-Apr-12 12:33N 22°18' E 114°13'0 0.0
2015-Apr-12 11:33N 22°18' E 114°13'0 0.0
2015-Apr-12 10:33N 22°18' E 114°13'0 0.0
2015-Apr-12 09:33N 22°18' E 114°13'0 0.0
2015-Apr-12 08:33N 22°18' E 114°13'0 0.0
2015-Apr-12 07:33N 22°18' E 114°13'0 0.1
2015-Apr-12 06:33N 22°18' E 114°13'0 0.1
2015-Apr-12 05:33N 22°18' E 114°13'0 0.0
2015-Apr-12 04:33N 22°18' E 114°13'0 0.0
2015-Apr-12 03:33N 22°18' E 114°13'0 0.1
2015-Apr-12 02:32N 22°18' E 114°13'0 0.1
2015-Apr-12 01:32N 22°18' E 114°13'0 0.0
2015-Apr-12 00:32N 22°18' E 114°13'1 0.7
2015-Apr-11 23:33N 22°17' E 114°14'8 8.2
2015-Apr-11 22:32N 22°11' E 114°20'1 0.1
2015-Apr-11 13:19N 22°12' E 114°19'8 9.9
2015-Apr-11 12:33N 22°18' E 114°13'0 0.1
2015-Apr-11 11:31N 22°18' E 114°13'0 0.0
2015-Apr-11 10:31N 22°18' E 114°13'0 0.0
2015-Apr-11 09:31N 22°18' E 114°13'0 0.0
2015-Apr-11 08:31N 22°18' E 114°13'  
Track history (hours):
 
Tides and Currents Weather Stations Pressure Air Temp Water Temp Dewpoint Dewpoint Depression Visibility Wind Speed Wind Dir Waves Ship Positions

Pongnae

Operator: V Ships Leisure SAM

Last reported at 2015-Apr-21 07:33 UTC. Time now 2015-Apr-21 08:18 UTC.
Position N 22°18' E 114°13'.

Length 171 m; draft 6.6 m.

Type: Passenger vessel. MMSI: 353669000.

Date/timePositionNaut miles runAvg speedWind from/ knotsBaromVisibWave heightAir tempDewpointWater temp
2015-Apr-21 07:33N 22°18' E 114°13'0 0.1
2015-Apr-21 06:33N 22°18' E 114°13'0 0.1
2015-Apr-21 05:33N 22°18' E 114°13'0 0.0
2015-Apr-21 04:33N 22°18' E 114°13'0 0.0
2015-Apr-21 03:33N 22°18' E 114°13'0 0.1
2015-Apr-21 02:33N 22°18' E 114°13'0 0.0
2015-Apr-21 01:30N 22°18' E 114°13'0 0.0
2015-Apr-21 00:33N 22°18' E 114°13'0 0.5
2015-Apr-20 23:33N 22°18' E 114°14'8 8.4
2015-Apr-20 22:33N 22°12' E 114°20'1 0.1
2015-Apr-20 13:28N 22°12' E 114°19'8 8.5
2015-Apr-20 12:33N 22°18' E 114°13'0 0.0
2015-Apr-20 11:33N 22°18' E 114°13'0 0.1
2015-Apr-20 10:33N 22°18' E 114°13'0 0.1
2015-Apr-20 09:33N 22°18' E 114°13'0 0.0
2015-Apr-20 08:33N 22°18' E 114°13'0 0.0
2015-Apr-20 07:33N 22°18' E 114°13'0 0.1
2015-Apr-20 06:33N 22°18' E 114°13'0 0.1
2015-Apr-20 05:33N 22°18' E 114°13'0 0.1
2015-Apr-20 04:33N 22°18' E 114°13'0 0.0
2015-Apr-20 03:33N 22°18' E 114°13'0 0.0
2015-Apr-20 02:33N 22°18' E 114°13'0 0.0
2015-Apr-20 01:32N 22°18' E 114°13'0 0.0
2015-Apr-20 00:33N 22°18' E 114°13'1 0.9
2015-Apr-19 23:33N 22°17' E 114°14'8 7.5
2015-Apr-19 22:28N 22°11' E 114°20'2 0.2
2015-Apr-19 13:18N 22°12' E 114°18'710.0
2015-Apr-19 12:34N 22°18' E 114°13'0 0.0
2015-Apr-19 11:32N 22°18' E 114°13'0 0.1
2015-Apr-19 10:32N 22°18' E 114°13'0 0.1
2015-Apr-19 09:32N 22°18' E 114°13'0 0.1
2015-Apr-19 08:32N 22°18' E 114°13'0 0.1
2015-Apr-19 07:32N 22°18' E 114°13'0 0.1
2015-Apr-19 06:31N 22°18' E 114°13'0 0.1
2015-Apr-19 05:31N 22°18' E 114°13'0 0.1
2015-Apr-19 04:31N 22°18' E 114°13'0 0.1
2015-Apr-19 03:31N 22°18' E 114°13'0 0.1
2015-Apr-19 02:31N 22°18' E 114°13'0 0.1
2015-Apr-19 01:28N 22°18' E 114°13'0 0.0
2015-Apr-19 00:31N 22°18' E 114°13'2 2.0
2015-Apr-18 23:34N 22°17' E 114°15'10 7.5
2015-Apr-18 22:15N 22°08' E 114°19'4 0.5
2015-Apr-18 13:21N 22°12' E 114°19'8 9.6
2015-Apr-18 12:33N 22°18' E 114°13'0 0.0
2015-Apr-18 11:33N 22°18' E 114°13'0 0.1
2015-Apr-18 10:33N 22°18' E 114°13'0 0.0
2015-Apr-18 09:33N 22°18' E 114°13'0 0.1
2015-Apr-18 08:33N 22°18' E 114°13'0 0.0
2015-Apr-18 07:33N 22°18' E 114°13'0 0.0
2015-Apr-18 06:33N 22°18' E 114°13'0 0.0
2015-Apr-18 05:33N 22°18' E 114°13'0 0.0
2015-Apr-18 04:33N 22°18' E 114°13'0 0.0
2015-Apr-18 03:33N 22°18' E 114°13'0 0.1
2015-Apr-18 02:33N 22°18' E 114°13'0 0.0
2015-Apr-18 01:33N 22°18' E 114°13'0 0.0
2015-Apr-18 00:33N 22°18' E 114°13'1 0.9
2015-Apr-17 23:33N 22°17' E 114°14'11 8.4
2015-Apr-17 22:16N 22°08' E 114°21'4 0.4
2015-Apr-17 13:29N 22°12' E 114°19'8 8.2
2015-Apr-17 12:31N 22°18' E 114°13'0 0.1
2015-Apr-17 11:31N 22°18' E 114°13'0 0.0
2015-Apr-17 10:31N 22°18' E 114°13'0 0.0
2015-Apr-17 09:31N 22°18' E 114°13'0 0.0
2015-Apr-17 08:31N 22°18' E 114°13'0 0.0
2015-Apr-17 07:33N 22°18' E 114°13'0 0.0
2015-Apr-17 06:30N 22°18' E 114°13'0 0.1
2015-Apr-17 05:33N 22°18' E 114°13'0 0.0
2015-Apr-17 04:33N 22°18' E 114°13'0 0.0
2015-Apr-17 03:33N 22°18' E 114°13'0 0.1
2015-Apr-17 02:33N 22°18' E 114°13'0 0.1
2015-Apr-17 01:33N 22°18' E 114°13'0 0.0
2015-Apr-17 00:33N 22°18' E 114°13'2 1.9
2015-Apr-16 23:33N 22°17' E 114°15'11 7.5
2015-Apr-16 22:06N 22°07' E 114°19'5 0.6
2015-Apr-16 13:29N 22°12' E 114°19'8 8.2
2015-Apr-16 12:33N 22°18' E 114°13'0 0.1
2015-Apr-16 11:33N 22°18' E 114°13'0 0.0
2015-Apr-16 10:33N 22°18' E 114°13'0 0.1
2015-Apr-16 09:33N 22°18' E 114°13'0 0.0
2015-Apr-16 08:33N 22°18' E 114°13'0 0.0
2015-Apr-16 07:33N 22°18' E 114°13'0 0.1
2015-Apr-16 06:33N 22°18' E 114°13'0 0.0
2015-Apr-16 05:33N 22°18' E 114°13'0 0.1
2015-Apr-16 04:33N 22°18' E 114°13'0 0.0
2015-Apr-16 03:33N 22°18' E 114°13'0 0.1
2015-Apr-16 02:33N 22°18' E 114°13'0 0.1
2015-Apr-16 01:33N 22°18' E 114°13'0 0.0
2015-Apr-16 00:33N 22°18' E 114°13'1 1.0
2015-Apr-15 23:33N 22°17' E 114°14'12 8.5
2015-Apr-15 22:10N 22°07' E 114°20'2 1.1
2015-Apr-15 20:28N 22°05' E 114°19'7 1.0
2015-Apr-15 13:13N 22°12' E 114°18'710.4
2015-Apr-15 12:31N 22°18' E 114°13'0 0.0
2015-Apr-15 11:31N 22°18' E 114°13'0 0.1
2015-Apr-15 10:31N 22°18' E 114°13'0 0.0
2015-Apr-15 09:31N 22°18' E 114°13'0 0.0
2015-Apr-15 08:31N 22°18' E 114°13'0 0.0
2015-Apr-15 07:31N 22°18' E 114°13'0 0.0
2015-Apr-15 06:28N 22°18' E 114°13'0 0.0
2015-Apr-15 05:31N 22°18' E 114°13'0 0.1
2015-Apr-15 04:31N 22°18' E 114°13'0 0.0
2015-Apr-15 03:31N 22°18' E 114°13'0 0.1
2015-Apr-15 02:31N 22°18' E 114°13'0 0.1
2015-Apr-15 01:31N 22°18' E 114°13'0 0.0
2015-Apr-15 00:31N 22°18' E 114°13'1 0.6
2015-Apr-14 23:33N 22°17' E 114°14'12 8.3
2015-Apr-14 22:06N 22°07' E 114°20'5 0.6
2015-Apr-14 13:13N 22°12' E 114°19'711.4
2015-Apr-14 12:33N 22°18' E 114°13'0 0.1
2015-Apr-14 11:32N 22°18' E 114°13'0 0.0
2015-Apr-14 10:32N 22°18' E 114°13'0 0.0
2015-Apr-14 09:32N 22°18' E 114°13'0 0.1
2015-Apr-14 08:32N 22°18' E 114°13'0 0.0
2015-Apr-14 07:32N 22°18' E 114°13'0 0.0
2015-Apr-14 06:32N 22°18' E 114°13'0 0.0
2015-Apr-14 05:32N 22°18' E 114°13'0 0.0
2015-Apr-14 04:32N 22°18' E 114°13'0 0.0
2015-Apr-14 03:32N 22°18' E 114°13'0 0.0
2015-Apr-14 02:32N 22°18' E 114°13'0 0.0
2015-Apr-14 01:32N 22°18' E 114°13'0 0.0
2015-Apr-14 00:32N 22°18' E 114°13'1 1.0
2015-Apr-13 23:33N 22°17' E 114°14'8 7.7
2015-Apr-13 22:27N 22°11' E 114°20'5 1.6
2015-Apr-13 19:11N 22°06' E 114°18'7 1.1
2015-Apr-13 13:12N 22°12' E 114°18'711.3
2015-Apr-13 12:33N 22°18' E 114°13'0 0.0
2015-Apr-13 11:32N 22°18' E 114°13'0 0.0
2015-Apr-13 10:32N 22°18' E 114°13'0 0.0
2015-Apr-13 09:32N 22°18' E 114°13'0 0.1
2015-Apr-13 08:32N 22°18' E 114°13'0 0.0
2015-Apr-13 07:32N 22°18' E 114°13'0 0.0
2015-Apr-13 06:32N 22°18' E 114°13'0 0.0
2015-Apr-13 05:32N 22°18' E 114°13'0 0.0
2015-Apr-13 04:32N 22°18' E 114°13'0 0.1
2015-Apr-13 03:32N 22°18' E 114°13'0 0.0
2015-Apr-13 02:32N 22°18' E 114°13'0 0.1
2015-Apr-13 01:32N 22°18' E 114°13'0 0.0
2015-Apr-13 00:32N 22°18' E 114°13'1 0.9
2015-Apr-12 23:33N 22°17' E 114°14'9 8.2
2015-Apr-12 22:30N 22°10' E 114°20'5 1.0
2015-Apr-12 17:30N 22°06' E 114°18'7 1.6
2015-Apr-12 13:13N 22°13' E 114°18'710.1
2015-Apr-12 12:33N 22°18' E 114°13'0 0.0
2015-Apr-12 11:33N 22°18' E 114°13'0 0.0
2015-Apr-12 10:33N 22°18' E 114°13'0 0.0
2015-Apr-12 09:33N 22°18' E 114°13'0 0.0
2015-Apr-12 08:33N 22°18' E 114°13'0 0.0
2015-Apr-12 07:33N 22°18' E 114°13'0 0.1
2015-Apr-12 06:33N 22°18' E 114°13'0 0.1
2015-Apr-12 05:33N 22°18' E 114°13'0 0.0
2015-Apr-12 04:33N 22°18' E 114°13'0 0.0
2015-Apr-12 03:33N 22°18' E 114°13'0 0.1
2015-Apr-12 02:32N 22°18' E 114°13'0 0.1
2015-Apr-12 01:32N 22°18' E 114°13'0 0.0
2015-Apr-12 00:32N 22°18' E 114°13'1 0.7
2015-Apr-11 23:33N 22°17' E 114°14'8 8.2
2015-Apr-11 22:32N 22°11' E 114°20'1 0.1
2015-Apr-11 13:19N 22°12' E 114°19'8 9.9
2015-Apr-11 12:33N 22°18' E 114°13'0 0.1
2015-Apr-11 11:31N 22°18' E 114°13'0 0.0
2015-Apr-11 10:31N 22°18' E 114°13'0 0.0
2015-Apr-11 09:31N 22°18' E 114°13'0 0.0
2015-Apr-11 08:31N 22°18' E 114°13'  

Dump ship's entire track history